createdAt,value
2022-12-17T00:04:22.294Z,101566.69
2022-12-17T00:09:48.629Z,101563.03
2022-12-17T00:15:10.765Z,101575.47
2022-12-17T00:20:31.319Z,101565.72
2022-12-17T00:25:51.866Z,101567.56
2022-12-17T00:31:12.353Z,101574.50
2022-12-17T00:36:32.809Z,101580.63
2022-12-17T00:41:53.301Z,101572.81
2022-12-17T00:47:13.665Z,101579.72
2022-12-17T00:52:34.037Z,101587.59
2022-12-17T00:57:54.314Z,101585.00
2022-12-17T01:03:30.050Z,101582.34
2022-12-17T01:08:50.417Z,101591.97
2022-12-17T01:14:11.782Z,101584.16
2022-12-17T01:19:32.298Z,101586.78
2022-12-17T01:24:52.682Z,101592.97
2022-12-17T01:30:16.889Z,101601.78
2022-12-17T01:35:37.363Z,101619.34
2022-12-17T01:40:57.805Z,101618.34
2022-12-17T01:46:18.254Z,101638.72
2022-12-17T01:51:39.046Z,101634.09
2022-12-17T01:57:02.368Z,101638.63
2022-12-17T02:02:22.748Z,101637.69
2022-12-17T02:07:56.699Z,101647.47
2022-12-17T02:13:27.470Z,101645.75
2022-12-17T02:18:55.835Z,101646.53
2022-12-17T02:25:12.106Z,101643.97
2022-12-17T02:30:32.483Z,101660.66
2022-12-17T02:36:06.948Z,101653.59
2022-12-17T02:41:32.408Z,101655.38
2022-12-17T02:46:53.537Z,101662.34
2022-12-17T02:52:14.136Z,101661.44
2022-12-17T02:57:34.461Z,101664.00
2022-12-17T03:02:55.408Z,101671.97
2022-12-17T03:08:16.402Z,101673.75
2022-12-17T03:13:45.455Z,101672.06
2022-12-17T03:19:05.818Z,101681.78
2022-12-17T03:24:26.563Z,101678.22
2022-12-17T03:29:46.869Z,101686.97
2022-12-17T03:35:07.582Z,101691.41
2022-12-17T03:40:28.432Z,101702.84
2022-12-17T03:45:48.953Z,101706.31
2022-12-17T03:51:10.991Z,101701.84
2022-12-17T03:56:31.118Z,101693.97
2022-12-17T04:01:51.628Z,101701.88
2022-12-17T04:07:12.425Z,101703.66
2022-12-17T04:12:33.109Z,101716.00
2022-12-17T04:17:53.528Z,101719.56
2022-12-17T04:23:27.176Z,101726.53
2022-12-17T04:28:47.421Z,101730.94
2022-12-17T04:34:08.096Z,101730.06
2022-12-17T04:39:28.685Z,101730.06
2022-12-17T04:44:49.176Z,101744.09
2022-12-17T04:50:09.565Z,101744.94
2022-12-17T04:55:30.143Z,101749.38
2022-12-17T05:00:50.374Z,101746.66
2022-12-17T05:06:10.888Z,101754.69
2022-12-17T05:11:31.586Z,101749.38
2022-12-17T05:16:52.466Z,101753.75
2022-12-17T05:22:12.921Z,101744.94
2022-12-17T05:27:33.402Z,101741.44
2022-12-17T05:32:53.669Z,101751.94
2022-12-17T05:38:14.507Z,101762.66
2022-12-17T05:43:35.309Z,101765.22
2022-12-17T05:48:55.908Z,101768.69
2022-12-17T05:54:16.378Z,101783.69
2022-12-17T05:59:37.193Z,101782.75
2022-12-17T06:05:01.958Z,101776.63
2022-12-17T06:10:23.233Z,101797.81
2022-12-17T06:15:43.519Z,101796.81
2022-12-17T06:21:04.800Z,101810.03
2022-12-17T06:26:25.180Z,101804.72
2022-12-17T06:31:46.015Z,101807.38
2022-12-17T06:37:06.576Z,101804.84
2022-12-17T06:42:27.047Z,101804.81
2022-12-17T06:47:47.575Z,101811.81
2022-12-17T06:53:20.236Z,101827.66
2022-12-17T06:58:40.638Z,101831.97
2022-12-17T07:04:01.316Z,101836.41
2022-12-17T07:09:21.638Z,101839.13
2022-12-17T07:14:42.000Z,101851.38
2022-12-17T07:20:02.462Z,101855.75
2022-12-17T07:25:22.903Z,101859.31
2022-12-17T07:30:43.328Z,101868.09
2022-12-17T07:36:04.116Z,101879.63
2022-12-17T07:41:24.499Z,101890.00
2022-12-17T07:46:44.690Z,101900.56
2022-12-17T07:52:05.172Z,101898.06
2022-12-17T07:57:25.675Z,101897.00
2022-12-17T08:02:46.246Z,101897.97
2022-12-17T08:08:07.220Z,101897.03
2022-12-17T08:13:28.963Z,101902.41
2022-12-17T08:18:50.074Z,101914.59
2022-12-17T08:24:10.663Z,101912.09
2022-12-17T08:29:31.050Z,101916.44
2022-12-17T08:34:51.523Z,101921.88
2022-12-17T08:40:11.918Z,101935.84
2022-12-17T08:45:32.377Z,101934.56
2022-12-17T08:50:52.855Z,101944.56
2022-12-17T08:56:13.404Z,101942.78
2022-12-17T09:01:34.161Z,101954.34
2022-12-17T09:06:54.519Z,101947.34
2022-12-17T09:12:15.215Z,101956.19
2022-12-17T09:17:35.613Z,101963.97
2022-12-17T09:22:56.229Z,101968.28
2022-12-17T09:28:20.234Z,101971.69
2022-12-17T09:33:40.790Z,101978.69
2022-12-17T09:39:01.177Z,101984.81
2022-12-17T09:44:32.350Z,101991.75
2022-12-17T09:49:52.651Z,101988.34
2022-12-17T09:55:12.823Z,101998.81
2022-12-17T10:00:45.963Z,101997.22
2022-12-17T10:06:08.763Z,102006.66
2022-12-17T10:11:39.709Z,102011.38
2022-12-17T10:17:12.064Z,101999.88
2022-12-17T10:22:38.902Z,101999.03
2022-12-17T10:28:00.009Z,102009.72
2022-12-17T10:33:25.145Z,102007.13
2022-12-17T10:38:50.006Z,102022.94
2022-12-17T10:44:10.124Z,102016.00
2022-12-17T10:49:42.823Z,102019.50
2022-12-17T10:55:13.358Z,102019.47
2022-12-17T11:00:49.482Z,102016.78
2022-12-17T11:06:14.006Z,102010.72
2022-12-17T11:11:35.178Z,102005.44
2022-12-17T11:17:12.114Z,102017.66
2022-12-17T11:23:13.244Z,102015.00
2022-12-17T11:28:42.108Z,102009.72
2022-12-17T11:34:17.307Z,102014.06
2022-12-17T11:39:49.188Z,102012.28
2022-12-17T11:45:18.782Z,102022.00
2022-12-17T11:51:08.770Z,102021.22
2022-12-17T11:56:53.916Z,102024.69
2022-12-17T12:02:20.462Z,102018.50
2022-12-17T12:08:14.387Z,102011.44
2022-12-17T12:13:54.646Z,102009.38
2022-12-17T12:19:42.682Z,102010.44
2022-12-17T12:25:07.982Z,102000.59
2022-12-17T12:30:34.421Z,102003.16
2022-12-17T12:35:56.927Z,101997.72
2022-12-17T12:41:38.081Z,101990.09
2022-12-17T12:47:22.316Z,101987.38
2022-12-17T12:52:45.106Z,101977.88
2022-12-17T12:58:18.009Z,101975.03
2022-12-17T13:03:39.962Z,101967.09
2022-12-17T13:08:42.688Z,101959.88
2022-12-17T13:13:56.289Z,101961.72
2022-12-17T13:19:03.790Z,101962.66
2022-12-17T13:24:22.924Z,101953.28
2022-12-17T13:29:38.942Z,101948.06
2022-12-17T13:34:56.162Z,101960.03
2022-12-17T13:40:31.672Z,101959.16
2022-12-17T13:45:38.695Z,101965.31
2022-12-17T13:50:40.506Z,101948.47
2022-12-17T13:55:50.549Z,101961.72
2022-12-17T14:01:03.697Z,101952.97
2022-12-17T14:06:09.909Z,101959.88
2022-12-17T14:11:31.190Z,101952.09
2022-12-17T14:16:33.302Z,101959.34
2022-12-17T14:21:37.483Z,101961.53
2022-12-17T14:26:53.115Z,101960.34
2022-12-17T14:32:16.938Z,101970.75
2022-12-17T14:37:23.761Z,101968.16
2022-12-17T14:42:26.865Z,101957.72
2022-12-17T14:47:32.835Z,101968.25
2022-12-17T14:52:47.595Z,101972.69
2022-12-17T14:57:51.256Z,101978.81
2022-12-17T15:02:55.541Z,101977.91
2022-12-17T15:07:57.639Z,101983.19
2022-12-17T15:12:59.666Z,101983.16
2022-12-17T15:18:01.698Z,101983.13
2022-12-17T15:23:03.647Z,101992.81
2022-12-17T15:28:05.999Z,102002.38
2022-12-17T15:33:09.261Z,101995.44
2022-12-17T15:38:12.705Z,102002.38
2022-12-17T15:43:16.040Z,101993.59
2022-12-17T15:48:20.698Z,102006.88
2022-12-17T15:53:22.523Z,102011.22
2022-12-17T15:58:24.713Z,102017.38
2022-12-17T16:03:26.771Z,102014.72
2022-12-17T16:08:28.862Z,102009.44
2022-12-17T16:13:30.681Z,102015.66
2022-12-17T16:18:32.914Z,102033.28
2022-12-17T16:23:35.068Z,102026.25
2022-12-17T16:28:37.106Z,102027.13
2022-12-17T16:33:41.098Z,102033.28
2022-12-17T16:38:51.687Z,102038.63
2022-12-17T16:43:54.056Z,102032.50
2022-12-17T16:48:58.219Z,102036.00
2022-12-17T16:54:03.895Z,102028.06
2022-12-17T16:59:07.996Z,102028.97
2022-12-17T17:04:10.066Z,102027.16
2022-12-17T17:09:12.890Z,102027.13
2022-12-17T17:14:14.662Z,102032.44
2022-12-17T17:19:16.779Z,102040.28
2022-12-17T17:24:22.092Z,102041.28
2022-12-17T17:29:24.610Z,102042.97
2022-12-17T17:34:26.737Z,102038.50
2022-12-17T17:39:32.124Z,102040.34
2022-12-17T17:44:34.226Z,102038.56
2022-12-17T17:49:36.183Z,102057.97
2022-12-17T17:54:39.984Z,102048.28
2022-12-17T17:59:42.062Z,102043.06
2022-12-17T18:04:44.066Z,102041.19
2022-12-17T18:09:46.603Z,102045.56
2022-12-17T18:15:12.619Z,102046.47
2022-12-17T18:20:10.975Z,102034.22
2022-12-17T18:25:13.172Z,102041.13
2022-12-17T18:30:16.658Z,102035.88
2022-12-17T18:35:18.505Z,102041.31
2022-12-17T18:40:20.333Z,102030.56
2022-12-17T18:45:22.572Z,102036.91
2022-12-17T18:50:24.449Z,102035.03
2022-12-17T18:55:26.401Z,102041.19
2022-12-17T19:00:28.618Z,102034.19
2022-12-17T19:05:31.161Z,102054.50
2022-12-17T19:10:35.387Z,102061.47
2022-12-17T19:15:37.602Z,102065.09
2022-12-17T19:20:39.739Z,102068.66
2022-12-17T19:25:42.016Z,102069.47
2022-12-17T19:30:44.281Z,102067.78
2022-12-17T19:35:46.176Z,102073.03
2022-12-17T19:40:52.497Z,102078.28
2022-12-17T19:46:02.006Z,102083.53
2022-12-17T19:51:05.290Z,102087.81
2022-12-17T19:56:15.701Z,102094.94
2022-12-17T20:01:20.896Z,102094.19
2022-12-17T20:06:25.833Z,102102.00
2022-12-17T20:11:34.829Z,102094.06
2022-12-17T20:16:39.867Z,102094.13
2022-12-17T20:21:42.345Z,102095.06
2022-12-17T20:26:46.228Z,102103.00
2022-12-17T20:31:49.912Z,102094.16
2022-12-17T20:36:53.542Z,102094.09
2022-12-17T20:41:56.243Z,102092.28
2022-12-17T20:46:58.369Z,102090.59
2022-12-17T20:52:00.348Z,102085.25
2022-12-17T20:57:02.267Z,102081.81
2022-12-17T21:02:04.449Z,102090.53
2022-12-17T21:07:06.734Z,102103.06
2022-12-17T21:12:09.899Z,102095.94
2022-12-17T21:17:12.036Z,102094.16
2022-12-17T21:22:13.942Z,102101.16
2022-12-17T21:27:17.508Z,102090.63
2022-12-17T21:32:19.376Z,102101.94
2022-12-17T21:37:21.256Z,102105.63
2022-12-17T21:42:42.654Z,102117.06
2022-12-17T21:47:45.237Z,102118.72
2022-12-17T21:52:47.251Z,102118.72
2022-12-17T21:57:49.223Z,102104.69
2022-12-17T22:02:51.332Z,102111.81
2022-12-17T22:07:53.314Z,102135.47
2022-12-17T22:13:14.414Z,102148.75
2022-12-17T22:18:16.381Z,102141.69
2022-12-17T22:23:18.422Z,102139.09
2022-12-17T22:28:20.846Z,102125.94
2022-12-17T22:33:58.623Z,102134.72
2022-12-17T22:43:59.789Z,102137.38
2022-12-17T22:44:43.672Z,102132.03
2022-12-17T22:49:28.965Z,102131.22
2022-12-17T22:54:30.987Z,102128.47
2022-12-17T22:59:33.680Z,102122.28
2022-12-17T23:04:35.478Z,102123.25
2022-12-17T23:09:37.315Z,102129.44
2022-12-17T23:14:39.279Z,102142.59
2022-12-17T23:19:41.242Z,102128.56
2022-12-17T23:24:43.025Z,102116.97
2022-12-17T23:29:44.844Z,102112.63
2022-12-17T23:34:46.574Z,102124.97
2022-12-17T23:39:48.350Z,102111.78
2022-12-17T23:44:50.348Z,102110.91
2022-12-17T23:49:52.414Z,102115.38
2022-12-17T23:54:54.350Z,102110.06
2022-12-17T23:59:56.286Z,102115.38
